Time,TemperatureF,DewpointF,PressureIn,WindDirection,WindDirectionDegrees,WindSpeedMPH,WindSpeedGustMPH,Humidity,HourlyPrecipIn,Conditions,Clouds,dailyrainin,SoftwareType,DateUTC
2013-03-03 00:08:00,-999.0,-99.9,26.15,North,-999,-999.0,-999.0,-999,0.00,,,0.00,weatherlink.com 1.10,2013-03-03 05:08:00,
2013-03-03 00:23:00,-999.0,-99.9,26.16,North,-999,-999.0,-999.0,-999,0.00,,,0.00,weatherlink.com 1.10,2013-03-03 05:23:00,
2013-03-03 00:38:00,-999.0,-99.9,26.15,North,-999,-999.0,-999.0,-999,0.00,,,0.00,weatherlink.com 1.10,2013-03-03 05:38:00,
2013-03-03 00:53:00,-999.0,-99.9,26.15,North,-999,-999.0,-999.0,-999,0.00,,,0.00,weatherlink.com 1.10,2013-03-03 05:53:00,
2013-03-03 01:08:00,-999.0,-99.9,26.16,North,-999,-999.0,-999.0,-999,0.00,,,0.00,weatherlink.com 1.10,2013-03-03 06:08:00,
2013-03-03 01:24:00,-999.0,-99.9,26.16,North,-999,-999.0,-999.0,-999,0.00,,,0.00,weatherlink.com 1.10,2013-03-03 06:24:00,
2013-03-03 01:39:00,-999.0,-99.9,26.16,North,-999,-999.0,-999.0,-999,0.00,,,0.00,weatherlink.com 1.10,2013-03-03 06:39:00,
2013-03-03 01:54:00,-999.0,-99.9,26.16,North,-999,-999.0,-999.0,-999,0.00,,,0.00,weatherlink.com 1.10,2013-03-03 06:54:00,
2013-03-03 02:09:00,-999.0,-99.9,26.15,North,-999,-999.0,-999.0,-999,0.00,,,0.00,weatherlink.com 1.10,2013-03-03 07:09:00,
2013-03-03 02:24:00,-999.0,-99.9,26.14,North,-999,-999.0,-999.0,-999,0.00,,,0.00,weatherlink.com 1.10,2013-03-03 07:24:00,
2013-03-03 02:39:00,-999.0,-99.9,26.14,North,-999,-999.0,-999.0,-999,0.00,,,0.00,weatherlink.com 1.10,2013-03-03 07:39:00,
2013-03-03 02:54:00,-999.0,-99.9,26.14,North,-999,-999.0,-999.0,-999,0.00,,,0.00,weatherlink.com 1.10,2013-03-03 07:54:00,
2013-03-03 03:09:00,-999.0,-99.9,26.14,North,-999,-999.0,-999.0,-999,0.00,,,0.00,weatherlink.com 1.10,2013-03-03 08:09:00,
2013-03-03 03:24:00,-999.0,-99.9,26.14,North,-999,-999.0,-999.0,-999,0.00,,,0.00,weatherlink.com 1.10,2013-03-03 08:24:00,
2013-03-03 03:39:00,-999.0,-99.9,26.14,North,-999,-999.0,-999.0,-999,0.00,,,0.00,weatherlink.com 1.10,2013-03-03 08:39:00,
2013-03-03 03:54:00,-999.0,-99.9,26.13,North,-999,-999.0,-999.0,-999,0.00,,,0.00,weatherlink.com 1.10,2013-03-03 08:54:00,
2013-03-03 04:09:00,-999.0,-99.9,26.14,North,-999,-999.0,-999.0,-999,0.00,,,0.00,weatherlink.com 1.10,2013-03-03 09:09:00,
2013-03-03 04:24:00,-999.0,-99.9,26.14,North,-999,-999.0,-999.0,-999,0.00,,,0.00,weatherlink.com 1.10,2013-03-03 09:24:00,
2013-03-03 04:40:00,-999.0,-99.9,26.14,North,-999,-999.0,-999.0,-999,0.00,,,0.00,weatherlink.com 1.10,2013-03-03 09:40:00,
2013-03-03 04:55:00,-999.0,-99.9,26.14,North,-999,-999.0,-999.0,-999,0.00,,,0.00,weatherlink.com 1.10,2013-03-03 09:55:00,
2013-03-03 05:10:00,-999.0,-99.9,26.14,North,-999,-999.0,-999.0,-999,0.00,,,0.00,weatherlink.com 1.10,2013-03-03 10:10:00,
2013-03-03 05:25:00,-999.0,-99.9,26.14,North,-999,-999.0,-999.0,-999,0.00,,,0.00,weatherlink.com 1.10,2013-03-03 10:25:00,
2013-03-03 05:40:00,-999.0,-99.9,26.15,North,-999,-999.0,-999.0,-999,0.00,,,0.00,weatherlink.com 1.10,2013-03-03 10:40:00,
2013-03-03 05:55:00,-999.0,-99.9,26.15,North,-999,-999.0,-999.0,-999,0.00,,,0.00,weatherlink.com 1.10,2013-03-03 10:55:00,
2013-03-03 06:10:00,-999.0,-99.9,26.14,North,-999,-999.0,-999.0,-999,0.00,,,0.00,weatherlink.com 1.10,2013-03-03 11:10:00,
2013-03-03 06:25:00,-999.0,-99.9,26.14,North,-999,-999.0,-999.0,-999,0.00,,,0.00,weatherlink.com 1.10,2013-03-03 11:25:00,
2013-03-03 06:40:00,-999.0,-99.9,26.15,North,-999,-999.0,-999.0,-999,0.00,,,0.00,weatherlink.com 1.10,2013-03-03 11:40:00,
2013-03-03 06:55:00,-999.0,-99.9,26.15,North,-999,-999.0,-999.0,-999,0.00,,,0.00,weatherlink.com 1.10,2013-03-03 11:55:00,
2013-03-03 07:10:00,-999.0,-99.9,26.15,North,-999,-999.0,-999.0,-999,0.00,,,0.00,weatherlink.com 1.10,2013-03-03 12:10:00,
2013-03-03 07:25:00,16.2,10.0,26.15,NNW,333,9.0,18.0,77,0.00,,,0.00,weatherlink.com 1.10,2013-03-03 12:25:00,
2013-03-03 07:40:00,16.5,11.0,26.16,NNW,336,7.0,18.0,79,0.00,,,0.00,weatherlink.com 1.10,2013-03-03 12:40:00,
2013-03-03 07:55:00,16.9,12.0,26.16,NW,326,9.0,14.0,81,0.00,,,0.00,weatherlink.com 1.10,2013-03-03 12:55:00,
2013-03-03 08:10:00,16.9,12.0,26.16,NNW,346,10.0,20.0,81,0.00,,,0.00,weatherlink.com 1.10,2013-03-03 13:10:00,
2013-03-03 08:25:00,17.7,14.0,26.16,ESE,114,12.0,15.0,84,0.00,,,0.00,weatherlink.com 1.10,2013-03-03 13:25:00,
2013-03-03 08:41:00,18.6,14.0,26.16,SSE,148,0.0,11.0,83,0.00,,,0.00,weatherlink.com 1.10,2013-03-03 13:41:00,
2013-03-03 08:56:00,18.6,15.0,26.16,SE,128,12.0,21.0,84,0.00,,,0.00,weatherlink.com 1.10,2013-03-03 13:56:00,
2013-03-03 09:11:00,18.8,14.0,26.16,South,185,0.0,14.0,82,0.00,,,0.00,weatherlink.com 1.10,2013-03-03 14:11:00,
2013-03-03 09:26:00,19.7,15.0,26.17,SE,138,22.0,24.0,81,0.00,,,0.00,weatherlink.com 1.10,2013-03-03 14:26:00,
2013-03-03 09:41:00,20.2,15.0,26.17,SSW,202,1.0,15.0,79,0.00,,,0.00,weatherlink.com 1.10,2013-03-03 14:41:00,
2013-03-03 09:56:00,20.8,14.0,26.17,SE,142,0.0,18.0,76,0.00,,,0.00,weatherlink.com 1.10,2013-03-03 14:56:00,
2013-03-03 10:11:00,20.4,14.0,26.18,West,275,1.0,24.0,77,0.00,,,0.00,weatherlink.com 1.10,2013-03-03 15:11:00,
2013-03-03 10:26:00,20.7,14.0,26.17,SE,126,7.0,32.0,75,0.00,,,0.00,weatherlink.com 1.10,2013-03-03 15:26:00,
2013-03-03 10:41:00,22.3,16.0,26.17,SE,132,0.0,13.0,75,0.01,,,0.01,weatherlink.com 1.10,2013-03-03 15:41:00,
2013-03-03 10:56:00,21.6,15.0,26.17,South,176,6.0,26.0,75,0.01,,,0.01,weatherlink.com 1.10,2013-03-03 15:56:00,
2013-03-03 11:11:00,21.5,15.0,26.17,ESE,117,17.0,30.0,75,0.01,,,0.01,weatherlink.com 1.10,2013-03-03 16:11:00,
2013-03-03 11:26:00,21.8,15.0,26.17,West,269,6.0,30.0,75,0.01,,,0.01,weatherlink.com 1.10,2013-03-03 16:26:00,
2013-03-03 11:41:00,22.4,16.0,26.17,SE,145,3.0,21.0,75,0.00,,,0.01,weatherlink.com 1.10,2013-03-03 16:41:00,
2013-03-03 11:56:00,21.8,15.0,26.17,NW,322,0.0,30.0,75,0.00,,,0.01,weatherlink.com 1.10,2013-03-03 16:56:00,
2013-03-03 12:11:00,22.7,16.0,26.17,ENE,78,5.0,27.0,74,0.00,,,0.01,weatherlink.com 1.10,2013-03-03 17:11:00,
2013-03-03 12:26:00,22.9,15.0,26.17,SSW,211,7.0,22.0,71,0.00,,,0.01,weatherlink.com 1.10,2013-03-03 17:26:00,
2013-03-03 12:41:00,24.1,16.0,26.17,SSE,156,0.0,25.0,71,0.00,,,0.01,weatherlink.com 1.10,2013-03-03 17:41:00,
2013-03-03 12:56:00,20.5,12.0,26.16,NNW,335,18.0,31.0,69,0.00,,,0.01,weatherlink.com 1.10,2013-03-03 17:56:00,
2013-03-03 13:11:00,20.8,11.0,26.16,WNW,303,12.0,21.0,67,0.00,,,0.01,weatherlink.com 1.10,2013-03-03 18:11:00,
2013-03-03 13:26:00,21.0,11.0,26.15,NW,319,11.0,23.0,66,0.00,,,0.01,weatherlink.com 1.10,2013-03-03 18:26:00,
2013-03-03 13:41:00,20.8,12.0,26.15,NW,311,7.0,23.0,68,0.00,,,0.01,weatherlink.com 1.10,2013-03-03 18:41:00,
2013-03-03 13:56:00,21.3,12.0,26.15,NW,325,7.0,21.0,66,0.00,,,0.01,weatherlink.com 1.10,2013-03-03 18:56:00,
2013-03-03 14:11:00,21.4,12.0,26.15,NNW,342,23.0,23.0,66,0.00,,,0.01,weatherlink.com 1.10,2013-03-03 19:11:00,
2013-03-03 14:26:00,21.8,12.0,26.15,North,355,10.0,23.0,67,0.00,,,0.01,weatherlink.com 1.10,2013-03-03 19:26:00,
2013-03-03 14:41:00,22.1,12.0,26.15,NW,319,14.0,26.0,66,0.00,,,0.01,weatherlink.com 1.10,2013-03-03 19:41:00,
2013-03-03 14:56:00,22.2,12.0,26.15,NW,325,4.0,24.0,65,0.00,,,0.01,weatherlink.com 1.10,2013-03-03 19:56:00,
2013-03-03 15:11:00,23.5,13.0,26.15,SSW,213,7.0,18.0,65,0.00,,,0.01,weatherlink.com 1.10,2013-03-03 20:11:00,
2013-03-03 15:26:00,23.0,13.0,26.15,WNW,286,9.0,19.0,66,0.00,,,0.01,weatherlink.com 1.10,2013-03-03 20:26:00,
2013-03-03 15:41:00,22.7,13.0,26.15,WNW,282,11.0,18.0,66,0.00,,,0.01,weatherlink.com 1.10,2013-03-03 20:41:00,
2013-03-03 15:56:00,22.2,13.0,26.15,WSW,246,1.0,19.0,67,0.00,,,0.01,weatherlink.com 1.10,2013-03-03 20:56:00,
2013-03-03 16:11:00,21.9,13.0,26.15,West,272,12.0,19.0,68,0.00,,,0.01,weatherlink.com 1.10,2013-03-03 21:11:00,
2013-03-03 16:26:00,21.6,12.0,26.16,NNW,346,22.0,25.0,67,0.00,,,0.01,weatherlink.com 1.10,2013-03-03 21:26:00,
2013-03-03 16:41:00,21.6,13.0,26.16,NW,325,6.0,21.0,69,0.00,,,0.01,weatherlink.com 1.10,2013-03-03 21:41:00,
2013-03-03 16:56:00,21.4,13.0,26.16,WSW,249,1.0,17.0,69,0.00,,,0.01,weatherlink.com 1.10,2013-03-03 21:56:00,
2013-03-03 17:11:00,21.3,13.0,26.16,WNW,292,8.0,24.0,71,0.00,,,0.01,weatherlink.com 1.10,2013-03-03 22:11:00,
2013-03-03 17:26:00,21.3,15.0,26.16,SE,138,16.0,32.0,76,0.00,,,0.01,weatherlink.com 1.10,2013-03-03 22:26:00,
2013-03-03 17:41:00,21.0,15.0,26.16,SE,130,21.0,34.0,77,0.00,,,0.01,weatherlink.com 1.10,2013-03-03 22:41:00,
2013-03-03 17:56:00,21.0,14.0,26.16,NW,323,8.0,20.0,73,0.00,,,0.01,weatherlink.com 1.10,2013-03-03 22:56:00,
2013-03-03 18:11:00,20.6,13.0,26.17,WNW,292,1.0,20.0,72,0.00,,,0.01,weatherlink.com 1.10,2013-03-03 23:11:00,
2013-03-03 18:26:00,-999.0,-99.9,26.17,North,-999,-999.0,-999.0,-999,0.00,,,0.01,weatherlink.com 1.10,2013-03-03 23:26:00,
2013-03-03 18:41:00,-999.0,-99.9,26.17,North,-999,-999.0,-999.0,-999,0.00,,,0.01,weatherlink.com 1.10,2013-03-03 23:41:00,
2013-03-03 18:57:00,-999.0,-99.9,26.18,North,-999,-999.0,-999.0,-999,0.00,,,0.01,weatherlink.com 1.10,2013-03-03 23:57:00,
2013-03-03 19:12:00,-999.0,-99.9,26.18,North,-999,-999.0,-999.0,-999,0.00,,,0.01,weatherlink.com 1.10,2013-03-04 00:12:00,
2013-03-03 19:27:00,-999.0,-99.9,26.18,North,-999,-999.0,-999.0,-999,0.00,,,0.01,weatherlink.com 1.10,2013-03-04 00:27:00,
2013-03-03 19:42:00,-999.0,-99.9,26.18,North,-999,-999.0,-999.0,-999,0.00,,,0.01,weatherlink.com 1.10,2013-03-04 00:42:00,
2013-03-03 19:57:00,-999.0,-99.9,26.18,North,-999,-999.0,-999.0,-999,0.00,,,0.01,weatherlink.com 1.10,2013-03-04 00:57:00,
2013-03-03 20:12:00,-999.0,-99.9,26.18,North,-999,-999.0,-999.0,-999,0.00,,,0.01,weatherlink.com 1.10,2013-03-04 01:12:00,
2013-03-03 20:27:00,-999.0,-99.9,26.18,North,-999,-999.0,-999.0,-999,0.00,,,0.01,weatherlink.com 1.10,2013-03-04 01:27:00,
2013-03-03 20:42:00,-999.0,-99.9,26.18,North,-999,-999.0,-999.0,-999,0.00,,,0.01,weatherlink.com 1.10,2013-03-04 01:42:00,
2013-03-03 20:57:00,-999.0,-99.9,26.18,North,-999,-999.0,-999.0,-999,0.00,,,0.01,weatherlink.com 1.10,2013-03-04 01:57:00,
2013-03-03 21:12:00,-999.0,-99.9,26.18,North,-999,-999.0,-999.0,-999,0.00,,,0.01,weatherlink.com 1.10,2013-03-04 02:12:00,
2013-03-03 21:27:00,-999.0,-99.9,26.18,North,-999,-999.0,-999.0,-999,0.00,,,0.01,weatherlink.com 1.10,2013-03-04 02:27:00,
2013-03-03 21:42:00,-999.0,-99.9,26.19,North,-999,-999.0,-999.0,-999,0.00,,,0.01,weatherlink.com 1.10,2013-03-04 02:42:00,
2013-03-03 21:57:00,-999.0,-99.9,26.18,North,-999,-999.0,-999.0,-999,0.00,,,0.01,weatherlink.com 1.10,2013-03-04 02:57:00,
2013-03-03 22:12:00,-999.0,-99.9,26.18,North,-999,-999.0,-999.0,-999,0.00,,,0.01,weatherlink.com 1.10,2013-03-04 03:12:00,
2013-03-03 22:28:00,-999.0,-99.9,26.18,North,-999,-999.0,-999.0,-999,0.00,,,0.01,weatherlink.com 1.10,2013-03-04 03:28:00,
2013-03-03 22:58:00,-999.0,-99.9,26.18,North,-999,-999.0,-999.0,-999,0.00,,,0.01,weatherlink.com 1.10,2013-03-04 03:58:00,
2013-03-03 23:13:00,-999.0,-99.9,26.19,North,-999,-999.0,-999.0,-999,0.00,,,0.01,weatherlink.com 1.10,2013-03-04 04:13:00,
2013-03-03 23:28:00,-999.0,-99.9,26.19,North,-999,-999.0,-999.0,-999,0.00,,,0.01,weatherlink.com 1.10,2013-03-04 04:28:00,
2013-03-03 23:43:00,-999.0,-99.9,26.19,North,-999,-999.0,-999.0,-999,0.00,,,0.01,weatherlink.com 1.10,2013-03-04 04:43:00,
2013-03-03 23:58:00,-999.0,-99.9,26.19,North,-999,-999.0,-999.0,-999,0.00,,,0.01,weatherlink.com 1.10,2013-03-04 04:58:00,